Time;durP1;ratioP1;P1;durP2;ratioP2;P2;SDS_P1;SDS_P2;PMS_P1;PMS_P2;Temp;Humidity;BMP_temperature;BMP_pressure;BME280_temperature;BME280_humidity;BME280_pressure;Samples;Min_cycle;Max_cycle;Signal;HPM_P1;HPM_P2
2024/01/06 00:01:15;;;;;;;13.80;5.80;;;;;;;;;;5036346;28;20246;-74
2024/01/06 00:03:40;;;;;;;18.77;6.93;;;;;;;;;;5036334;28;20075;-73
2024/01/06 00:06:05;;;;;;;12.52;6.40;;;;;;;;;;5035082;28;20021;-74
2024/01/06 00:08:31;;;;;;;15.30;6.68;;;;;;;;;;5035980;28;20029;-74
2024/01/06 00:10:56;;;;;;;13.30;6.57;;;;;;;;;;5035924;28;20025;-75
2024/01/06 00:13:21;;;;;;;8.90;5.97;;;;;;;;;;5036459;28;20258;-81
2024/01/06 00:15:46;;;;;;;12.32;6.10;;;;;;;;;;5039317;28;20261;-75
2024/01/06 00:18:12;;;;;;;13.33;6.60;;;;;;;;;;5041085;28;20038;-78
2024/01/06 00:20:37;;;;;;;15.05;6.45;;;;;;;;;;5040009;28;20266;-75
2024/01/06 00:23:02;;;;;;;12.85;6.57;;;;;;;;;;5036007;28;20025;-75
2024/01/06 00:25:27;;;;;;;14.35;6.65;;;;;;;;;;5036700;28;20037;-75
2024/01/06 00:27:53;;;;;;;14.68;6.82;;;;;;;;;;5034523;28;20025;-76
2024/01/06 00:30:18;;;;;;;16.73;6.90;;;;;;;;;;5036078;28;20026;-75
2024/01/06 00:32:43;;;;;;;13.15;7.18;;;;;;;;;;5035920;28;20336;-75
2024/01/06 00:35:08;;;;;;;15.97;7.13;;;;;;;;;;5035552;28;20025;-75
2024/01/06 00:37:34;;;;;;;12.43;6.67;;;;;;;;;;5034284;28;20404;-75
2024/01/06 00:39:59;;;;;;;14.10;6.97;;;;;;;;;;5035523;28;20301;-75
2024/01/06 00:42:24;;;;;;;12.65;6.88;;;;;;;;;;5035701;28;20026;-75
2024/01/06 00:44:50;;;;;;;16.17;6.10;;;;;;;;;;5035574;28;20403;-76
2024/01/06 00:47:15;;;;;;;15.40;6.50;;;;;;;;;;5035642;28;20111;-76
2024/01/06 00:49:40;;;;;;;15.23;7.07;;;;;;;;;;5035758;28;20286;-75
2024/01/06 00:52:05;;;;;;;14.43;6.40;;;;;;;;;;5035343;28;20324;-74
2024/01/06 00:54:30;;;;;;;14.50;6.97;;;;;;;;;;5034053;28;20254;-75
2024/01/06 00:56:56;;;;;;;16.77;6.87;;;;;;;;;;5035190;28;20033;-75
2024/01/06 00:59:21;;;;;;;15.98;6.95;;;;;;;;;;5035225;28;20266;-74
2024/01/06 01:01:46;;;;;;;15.05;6.93;;;;;;;;;;5033866;28;20559;-74
2024/01/06 01:04:11;;;;;;;13.23;6.65;;;;;;;;;;5034748;28;20092;-74
2024/01/06 01:06:37;;;;;;;16.33;7.07;;;;;;;;;;5035123;28;20033;-74
2024/01/06 01:09:02;;;;;;;10.68;6.45;;;;;;;;;;5035248;28;20257;-74
2024/01/06 01:11:27;;;;;;;12.65;6.68;;;;;;;;;;5035145;28;20029;-74
2024/01/06 01:13:53;;;;;;;13.30;7.00;;;;;;;;;;5035290;28;20024;-74
2024/01/06 01:16:18;;;;;;;16.45;7.68;;;;;;;;;;5035161;28;20037;-75
2024/01/06 01:18:43;;;;;;;14.07;6.57;;;;;;;;;;5034719;28;20021;-74
2024/01/06 01:21:08;;;;;;;14.67;6.97;;;;;;;;;;5034993;28;20281;-75
2024/01/06 01:23:34;;;;;;;12.98;6.22;;;;;;;;;;5034763;28;20267;-75
2024/01/06 01:25:59;;;;;;;14.13;6.78;;;;;;;;;;5033470;28;20067;-75
2024/01/06 01:28:24;;;;;;;11.77;6.65;;;;;;;;;;5034635;28;20397;-75
2024/01/06 01:30:49;;;;;;;15.30;6.60;;;;;;;;;;5034552;28;20438;-74
2024/01/06 01:33:15;;;;;;;11.23;6.47;;;;;;;;;;5034560;28;20033;-75
2024/01/06 01:35:40;;;;;;;15.87;7.10;;;;;;;;;;5034582;28;20254;-75
2024/01/06 01:38:07;;;;;;;16.20;7.55;;;;;;;;;;5033082;28;20259;-75
2024/01/06 01:40:32;;;;;;;16.35;8.23;;;;;;;;;;5034709;28;20061;-75
2024/01/06 01:42:57;;;;;;;15.20;7.27;;;;;;;;;;5033359;28;20053;-76
2024/01/06 01:45:22;;;;;;;16.75;8.23;;;;;;;;;;5034766;28;20340;-75
2024/01/06 01:47:47;;;;;;;16.40;7.27;;;;;;;;;;5033775;28;20088;-75
2024/01/06 01:50:14;;;;;;;16.08;8.45;;;;;;;;;;5034795;28;20255;-75
2024/01/06 01:52:40;;;;;;;15.07;7.68;;;;;;;;;;5034396;28;20068;-76
2024/01/06 01:55:06;;;;;;;17.63;8.05;;;;;;;;;;5034414;28;20021;-75
2024/01/06 01:57:32;;;;;;;13.63;7.55;;;;;;;;;;5033928;28;20026;-74
2024/01/06 01:59:57;;;;;;;14.50;7.82;;;;;;;;;;5035599;28;20484;-75
2024/01/06 02:02:22;;;;;;;19.33;8.05;;;;;;;;;;5036556;28;20029;-76
2024/01/06 02:04:48;;;;;;;15.68;7.40;;;;;;;;;;5032984;28;20442;-74
2024/01/06 02:07:13;;;;;;;14.23;7.50;;;;;;;;;;5034254;28;20068;-74
2024/01/06 02:09:38;;;;;;;13.10;7.55;;;;;;;;;;5034042;28;20040;-74
2024/01/06 02:12:04;;;;;;;16.27;8.27;;;;;;;;;;5034009;28;20029;-75
2024/01/06 02:14:29;;;;;;;16.15;7.85;;;;;;;;;;5033792;28;20032;-75
2024/01/06 02:16:54;;;;;;;14.98;8.23;;;;;;;;;;5033673;28;20104;-73
2024/01/06 02:19:20;;;;;;;17.07;7.63;;;;;;;;;;5033810;28;20155;-73
2024/01/06 02:21:51;;;;;;;13.15;6.68;;;;;;;;;;5033701;28;20286;-74
2024/01/06 02:24:17;;;;;;;13.30;6.50;;;;;;;;;;5032399;28;20040;-75
2024/01/06 02:26:42;;;;;;;15.07;6.97;;;;;;;;;;5033527;28;20114;-74
2024/01/06 02:29:07;;;;;;;13.20;6.57;;;;;;;;;;5033556;28;20308;-74
2024/01/06 02:31:32;;;;;;;11.00;5.83;;;;;;;;;;5033588;28;20317;-75
2024/01/06 02:33:57;;;;;;;11.13;6.63;;;;;;;;;;5034104;28;20286;-75
2024/01/06 02:36:23;;;;;;;14.93;7.30;;;;;;;;;;5033445;28;20278;-76
2024/01/06 02:38:48;;;;;;;18.60;7.30;;;;;;;;;;5033232;28;20258;-74
2024/01/06 02:41:13;;;;;;;13.73;7.10;;;;;;;;;;5032118;28;20254;-74
2024/01/06 02:43:38;;;;;;;14.93;6.68;;;;;;;;;;5032164;28;20030;-75
2024/01/06 02:46:04;;;;;;;20.93;6.27;;;;;;;;;;5032421;28;20452;-75
2024/01/06 02:48:30;;;;;;;14.52;6.63;;;;;;;;;;5032094;28;20632;-75
2024/01/06 02:50:56;;;;;;;21.75;7.32;;;;;;;;;;5033250;28;20040;-75
2024/01/06 02:53:21;;;;;;;13.82;7.28;;;;;;;;;;5033279;28;20038;-75
2024/01/06 02:55:46;;;;;;;12.97;6.37;;;;;;;;;;5033206;28;20033;-75
2024/01/06 02:58:11;;;;;;;10.18;5.85;;;;;;;;;;5031064;28;20250;-74
2024/01/06 03:00:36;;;;;;;13.60;6.50;;;;;;;;;;5033173;28;20535;-75
2024/01/06 03:03:02;;;;;;;14.20;6.28;;;;;;;;;;5033050;28;20851;-75
2024/01/06 03:05:27;;;;;;;10.30;5.95;;;;;;;;;;5033351;28;20443;-75
2024/01/06 03:07:52;;;;;;;13.17;6.80;;;;;;;;;;5031676;28;20045;-75
2024/01/06 03:10:18;;;;;;;14.07;5.88;;;;;;;;;;5031737;28;20300;-75
2024/01/06 03:12:43;;;;;;;13.63;5.87;;;;;;;;;;5031692;28;20017;-75
2024/01/06 03:15:08;;;;;;;13.70;5.60;;;;;;;;;;5032991;28;20312;-75
2024/01/06 03:17:33;;;;;;;15.82;6.18;;;;;;;;;;5033040;28;20048;-75
2024/01/06 03:19:59;;;;;;;13.73;6.37;;;;;;;;;;5033188;28;20452;-75
2024/01/06 03:22:24;;;;;;;12.23;6.07;;;;;;;;;;5031633;28;20730;-75
2024/01/06 03:24:49;;;;;;;13.75;6.10;;;;;;;;;;5031644;28;20048;-74
2024/01/06 03:27:14;;;;;;;12.82;5.18;;;;;;;;;;5031537;28;20029;-74
2024/01/06 03:29:40;;;;;;;14.82;5.88;;;;;;;;;;5033462;28;20104;-74
2024/01/06 03:32:05;;;;;;;10.70;5.55;;;;;;;;;;5032924;28;20053;-74
2024/01/06 03:34:31;;;;;;;11.30;6.28;;;;;;;;;;5033050;28;20507;-74
2024/01/06 03:36:56;;;;;;;13.37;6.07;;;;;;;;;;5033191;28;20052;-75
2024/01/06 03:39:21;;;;;;;13.57;6.10;;;;;;;;;;5032795;28;20301;-75
2024/01/06 03:41:48;;;;;;;11.15;5.75;;;;;;;;;;5031556;28;20290;-74
2024/01/06 03:44:13;;;;;;;16.50;5.85;;;;;;;;;;5031391;28;20036;-75
2024/01/06 03:46:38;;;;;;;13.65;5.72;;;;;;;;;;5031444;28;20029;-74
2024/01/06 03:49:03;;;;;;;10.60;5.57;;;;;;;;;;5032644;28;20499;-74
2024/01/06 03:51:29;;;;;;;10.57;6.10;;;;;;;;;;5031310;28;20034;-75
2024/01/06 03:53:54;;;;;;;13.27;6.47;;;;;;;;;;5031367;28;20049;-74
2024/01/06 03:56:19;;;;;;;9.23;5.47;;;;;;;;;;5032973;28;20021;-74
2024/01/06 03:58:44;;;;;;;12.52;5.93;;;;;;;;;;5032671;28;20033;-74
2024/01/06 04:01:10;;;;;;;11.52;6.00;;;;;;;;;;5032624;28;20388;-73
2024/01/06 04:03:35;;;;;;;13.00;5.63;;;;;;;;;;5032597;28;20071;-74
2024/01/06 04:06:01;;;;;;;13.35;6.03;;;;;;;;;;5032673;28;20455;-74
2024/01/06 04:08:26;;;;;;;10.02;5.18;;;;;;;;;;5032374;28;20025;-75
2024/01/06 04:10:51;;;;;;;16.35;6.70;;;;;;;;;;5033680;28;20447;-75
2024/01/06 04:13:17;;;;;;;12.90;5.73;;;;;;;;;;5036186;28;20108;-75
2024/01/06 04:15:42;;;;;;;11.65;6.28;;;;;;;;;;5036199;28;20293;-75
2024/01/06 04:18:08;;;;;;;13.73;6.20;;;;;;;;;;5035939;28;20053;-75
2024/01/06 04:20:34;;;;;;;14.45;6.35;;;;;;;;;;5036161;28;20061;-75
2024/01/06 04:22:59;;;;;;;11.38;6.40;;;;;;;;;;5036057;28;20484;-75
2024/01/06 04:25:24;;;;;;;14.37;6.60;;;;;;;;;;5036076;28;20026;-76
2024/01/06 04:27:50;;;;;;;16.77;6.65;;;;;;;;;;5036097;28;20400;-75
2024/01/06 04:30:16;;;;;;;14.32;7.25;;;;;;;;;;5036067;28;20033;-75
2024/01/06 04:32:42;;;;;;;14.32;7.25;;;;;;;;;;5035806;28;20022;-75
2024/01/06 04:35:07;;;;;;;17.05;7.18;;;;;;;;;;5035819;28;20036;-75
2024/01/06 04:37:33;;;;;;;15.52;7.28;;;;;;;;;;5035646;28;20025;-75
2024/01/06 04:39:58;;;;;;;21.27;7.88;;;;;;;;;;5035636;28;20034;-75
2024/01/06 04:42:23;;;;;;;16.52;7.45;;;;;;;;;;5035557;28;20029;-75
2024/01/06 04:44:52;;;;;;;18.60;7.13;;;;;;;;;;5034370;28;20072;-75
2024/01/06 04:47:17;;;;;;;13.55;7.07;;;;;;;;;;5035550;28;20032;-75
2024/01/06 04:49:43;;;;;;;17.42;7.95;;;;;;;;;;5035587;28;20494;-75
2024/01/06 04:52:08;;;;;;;16.92;7.82;;;;;;;;;;5035607;28;20075;-75
2024/01/06 04:54:34;;;;;;;18.50;8.03;;;;;;;;;;5034448;28;20022;-75
2024/01/06 04:56:59;;;;;;;14.77;7.70;;;;;;;;;;5035321;28;20385;-75
2024/01/06 04:59:24;;;;;;;19.23;7.65;;;;;;;;;;5035537;28;20298;-75
2024/01/06 05:01:51;;;;;;;14.13;7.32;;;;;;;;;;5035255;28;20029;-75
2024/01/06 05:04:17;;;;;;;12.70;7.18;;;;;;;;;;5035472;28;20029;-75
2024/01/06 05:06:42;;;;;;;16.90;8.30;;;;;;;;;;5035692;28;20155;-74
2024/01/06 05:09:07;;;;;;;18.75;8.75;;;;;;;;;;5035190;28;20082;-76
2024/01/06 05:11:32;;;;;;;13.90;7.87;;;;;;;;;;5035157;28;20481;-75
2024/01/06 05:13:57;;;;;;;15.48;8.18;;;;;;;;;;5033699;28;20776;-75
2024/01/06 05:16:23;;;;;;;16.15;6.93;;;;;;;;;;5035182;28;20033;-75
2024/01/06 05:18:48;;;;;;;17.63;7.85;;;;;;;;;;5035266;28;20057;-75
2024/01/06 05:21:13;;;;;;;14.97;7.10;;;;;;;;;;5033023;28;20021;-75
2024/01/06 05:23:38;;;;;;;16.30;8.02;;;;;;;;;;5034359;28;20258;-75
2024/01/06 05:26:04;;;;;;;16.67;7.37;;;;;;;;;;5035166;28;20079;-74
2024/01/06 05:28:29;;;;;;;13.43;7.47;;;;;;;;;;5034970;28;20259;-75
2024/01/06 05:30:54;;;;;;;14.20;7.50;;;;;;;;;;5035047;28;20033;-75
2024/01/06 05:33:20;;;;;;;16.83;7.40;;;;;;;;;;5034778;28;20251;-75
2024/01/06 05:35:45;;;;;;;16.47;7.00;;;;;;;;;;5034641;28;20025;-75
2024/01/06 05:38:10;;;;;;;18.10;8.25;;;;;;;;;;5034409;28;20290;-74
2024/01/06 05:40:35;;;;;;;17.42;7.82;;;;;;;;;;5034475;28;20021;-74
2024/01/06 05:43:00;;;;;;;15.25;8.02;;;;;;;;;;5036329;28;20602;-75
2024/01/06 05:45:26;;;;;;;15.30;7.50;;;;;;;;;;5037078;28;20029;-75
2024/01/06 05:47:51;;;;;;;15.03;8.13;;;;;;;;;;5035278;28;20025;-75
2024/01/06 05:50:16;;;;;;;17.48;7.50;;;;;;;;;;5034709;28;20341;-75
2024/01/06 05:52:42;;;;;;;19.23;7.68;;;;;;;;;;5033063;28;20523;-75
2024/01/06 05:55:08;;;;;;;17.30;8.50;;;;;;;;;;5033170;28;20124;-75
2024/01/06 05:57:34;;;;;;;18.05;8.27;;;;;;;;;;5033787;28;20071;-75
2024/01/06 05:59:59;;;;;;;15.93;7.80;;;;;;;;;;5032322;28;20021;-75
2024/01/06 06:02:25;;;;;;;18.10;8.68;;;;;;;;;;5033595;28;20018;-75
2024/01/06 06:04:51;;;;;;;18.23;8.68;;;;;;;;;;5032151;28;20078;-75
2024/01/06 06:07:16;;;;;;;17.88;8.27;;;;;;;;;;5033711;28;20101;-75
2024/01/06 06:09:41;;;;;;;18.25;8.35;;;;;;;;;;5033710;28;20549;-75
2024/01/06 06:12:07;;;;;;;18.80;9.03;;;;;;;;;;5033364;28;20476;-75
2024/01/06 06:14:32;;;;;;;18.75;8.38;;;;;;;;;;5033419;28;20863;-75
2024/01/06 06:16:57;;;;;;;19.57;9.53;;;;;;;;;;5033246;28;20061;-75
2024/01/06 06:19:22;;;;;;;19.05;8.98;;;;;;;;;;5033347;28;20294;-75
2024/01/06 06:21:47;;;;;;;16.38;8.25;;;;;;;;;;5031984;28;20091;-76
2024/01/06 06:24:13;;;;;;;20.77;9.23;;;;;;;;;;5033208;28;20036;-75
2024/01/06 06:26:38;;;;;;;19.05;9.85;;;;;;;;;;5033183;28;20391;-75
2024/01/06 06:29:03;;;;;;;19.92;9.40;;;;;;;;;;5031526;28;20041;-75
2024/01/06 06:31:29;;;;;;;16.65;8.90;;;;;;;;;;5032947;28;20032;-76
2024/01/06 06:33:54;;;;;;;19.27;9.40;;;;;;;;;;5031525;28;20025;-75
2024/01/06 06:36:19;;;;;;;20.73;10.30;;;;;;;;;;5032928;28;20026;-75
2024/01/06 06:38:45;;;;;;;18.67;9.52;;;;;;;;;;5031538;28;20321;-74
2024/01/06 06:41:10;;;;;;;19.92;9.10;;;;;;;;;;5033161;28;20032;-75
2024/01/06 06:43:35;;;;;;;22.63;9.93;;;;;;;;;;5032837;28;20031;-75
2024/01/06 06:46:00;;;;;;;18.80;9.83;;;;;;;;;;5032744;28;20442;-75
2024/01/06 06:48:26;;;;;;;21.92;9.80;;;;;;;;;;5032909;28;20633;-74
2024/01/06 06:50:51;;;;;;;20.33;9.48;;;;;;;;;;5032154;28;20025;-74
2024/01/06 06:53:16;;;;;;;20.33;10.02;;;;;;;;;;5031376;28;20025;-74
2024/01/06 06:55:41;;;;;;;23.02;10.35;;;;;;;;;;5032769;28;20407;-73
2024/01/06 06:58:07;;;;;;;23.13;11.00;;;;;;;;;;5033022;28;20069;-74
2024/01/06 07:00:32;;;;;;;20.20;10.63;;;;;;;;;;5032876;28;20030;-74
2024/01/06 07:02:58;;;;;;;23.13;11.02;;;;;;;;;;5032714;28;20261;-74
2024/01/06 07:05:23;;;;;;;27.67;11.27;;;;;;;;;;5031365;28;20116;-74
2024/01/06 07:07:48;;;;;;;24.13;11.68;;;;;;;;;;5031171;28;20452;-75
2024/01/06 07:10:14;;;;;;;28.03;11.63;;;;;;;;;;5031064;28;20041;-75
2024/01/06 07:12:39;;;;;;;25.60;10.50;;;;;;;;;;5032289;28;20286;-74
2024/01/06 07:15:04;;;;;;;23.80;11.10;;;;;;;;;;5032490;28;20033;-75
2024/01/06 07:17:30;;;;;;;26.10;12.02;;;;;;;;;;5032670;28;20026;-75
2024/01/06 07:19:55;;;;;;;22.53;10.13;;;;;;;;;;5032376;28;20484;-75
2024/01/06 07:22:20;;;;;;;28.67;12.20;;;;;;;;;;5032670;28;20757;-75
2024/01/06 07:24:46;;;;;;;22.35;10.48;;;;;;;;;;5032196;28;20017;-75
2024/01/06 07:27:11;;;;;;;26.73;11.30;;;;;;;;;;5032313;28;20030;-75
2024/01/06 07:29:37;;;;;;;26.58;10.98;;;;;;;;;;5032397;28;20040;-75
2024/01/06 07:32:02;;;;;;;24.73;11.20;;;;;;;;;;5032444;28;20033;-75
2024/01/06 07:34:28;;;;;;;28.33;12.27;;;;;;;;;;5031884;28;20029;-75
2024/01/06 07:36:53;;;;;;;29.60;11.60;;;;;;;;;;5032130;28;20087;-75
2024/01/06 07:39:18;;;;;;;24.88;11.55;;;;;;;;;;5030759;28;20270;-76
2024/01/06 07:41:44;;;;;;;25.27;11.30;;;;;;;;;;5031958;28;20025;-74
2024/01/06 07:44:10;;;;;;;34.08;12.65;;;;;;;;;;5030866;28;20079;-74
2024/01/06 07:46:36;;;;;;;26.65;10.98;;;;;;;;;;5034728;28;20115;-74
2024/01/06 07:49:02;;;;;;;26.70;12.27;;;;;;;;;;5036047;28;20049;-76
2024/01/06 07:51:27;;;;;;;27.52;10.98;;;;;;;;;;5036013;28;20057;-75
2024/01/06 07:53:52;;;;;;;30.47;11.60;;;;;;;;;;5034615;28;20040;-75
2024/01/06 07:56:18;;;;;;;29.30;11.05;;;;;;;;;;5035959;28;20258;-74
2024/01/06 07:58:43;;;;;;;30.85;12.52;;;;;;;;;;5036014;28;20396;-73
2024/01/06 08:01:08;;;;;;;29.08;11.65;;;;;;;;;;5035782;28;20108;-75
2024/01/06 08:03:34;;;;;;;22.87;11.10;;;;;;;;;;5035353;28;20037;-75
2024/01/06 08:05:59;;;;;;;28.08;11.00;;;;;;;;;;5035328;28;20316;-73
2024/01/06 08:08:24;;;;;;;28.77;12.85;;;;;;;;;;5034322;28;20032;-74
2024/01/06 08:10:50;;;;;;;31.65;12.10;;;;;;;;;;5036163;28;20025;-74
2024/01/06 08:13:15;;;;;;;26.67;11.25;;;;;;;;;;5035868;28;20502;-74
2024/01/06 08:15:40;;;;;;;28.37;11.80;;;;;;;;;;5035863;28;20097;-74
2024/01/06 08:18:06;;;;;;;30.63;12.13;;;;;;;;;;5035778;28;20254;-74
2024/01/06 08:20:31;;;;;;;29.63;11.75;;;;;;;;;;5035797;28;20389;-75
2024/01/06 08:22:56;;;;;;;28.02;12.35;;;;;;;;;;5036553;28;20029;-75
2024/01/06 08:25:22;;;;;;;27.85;12.25;;;;;;;;;;5034218;28;20511;-74
2024/01/06 08:27:47;;;;;;;25.97;13.03;;;;;;;;;;5035463;28;20048;-75
2024/01/06 08:30:12;;;;;;;27.42;12.27;;;;;;;;;;5035554;28;20633;-74
2024/01/06 08:32:38;;;;;;;27.38;12.88;;;;;;;;;;5035235;28;20398;-74
2024/01/06 08:35:03;;;;;;;31.40;13.25;;;;;;;;;;5035755;28;20041;-75
2024/01/06 08:37:29;;;;;;;32.40;12.68;;;;;;;;;;5035089;28;20507;-75
2024/01/06 08:39:54;;;;;;;25.27;12.15;;;;;;;;;;5035267;28;20049;-75
2024/01/06 08:42:19;;;;;;;25.13;11.88;;;;;;;;;;5035777;28;20391;-75
2024/01/06 08:44:45;;;;;;;28.65;11.50;;;;;;;;;;5034427;28;20432;-76
2024/01/06 08:47:10;;;;;;;28.00;12.15;;;;;;;;;;5035023;28;20467;-76
2024/01/06 08:49:35;;;;;;;28.30;11.85;;;;;;;;;;5035580;28;20095;-74
2024/01/06 08:52:00;;;;;;;26.45;11.23;;;;;;;;;;5033500;28;20021;-75
2024/01/06 08:54:26;;;;;;;28.83;12.33;;;;;;;;;;5033657;28;20483;-75
2024/01/06 08:56:51;;;;;;;24.17;10.93;;;;;;;;;;5032191;28;20830;-75
2024/01/06 08:59:16;;;;;;;29.03;11.93;;;;;;;;;;5034917;28;20258;-74
2024/01/06 09:01:42;;;;;;;24.83;11.45;;;;;;;;;;5034997;28;20262;-74
2024/01/06 09:04:07;;;;;;;26.77;11.10;;;;;;;;;;5034870;28;20033;-75
2024/01/06 09:06:32;;;;;;;26.92;11.82;;;;;;;;;;5035168;28;20095;-75
2024/01/06 09:08:58;;;;;;;23.98;11.55;;;;;;;;;;5034672;28;20436;-75
2024/01/06 09:11:23;;;;;;;29.83;12.20;;;;;;;;;;5034739;28;20124;-75
2024/01/06 09:13:48;;;;;;;26.08;12.63;;;;;;;;;;5033327;28;20032;-75
2024/01/06 09:16:14;;;;;;;24.02;11.63;;;;;;;;;;5034502;28;20479;-74
2024/01/06 09:18:39;;;;;;;30.50;12.18;;;;;;;;;;5034335;28;20030;-75
2024/01/06 09:21:05;;;;;;;26.55;11.68;;;;;;;;;;5033130;28;20025;-74
2024/01/06 09:23:31;;;;;;;26.55;11.30;;;;;;;;;;5034543;28;20036;-74
2024/01/06 09:25:57;;;;;;;24.10;11.60;;;;;;;;;;5033125;28;20484;-75
2024/01/06 09:28:22;;;;;;;23.02;10.98;;;;;;;;;;5034217;28;20049;-74
2024/01/06 09:30:47;;;;;;;29.23;11.73;;;;;;;;;;5035878;28;20480;-74
2024/01/06 09:33:15;;;;;;;27.67;11.57;;;;;;;;;;5038786;28;20033;-75
2024/01/06 09:35:41;;;;;;;26.77;12.02;;;;;;;;;;5035720;28;20267;-76
2024/01/06 09:38:07;;;;;;;25.58;11.52;;;;;;;;;;5034580;28;20036;-75
2024/01/06 09:40:34;;;;;;;27.80;11.07;;;;;;;;;;5035305;28;20391;-75
2024/01/06 09:42:59;;;;;;;24.23;10.73;;;;;;;;;;5035035;28;20083;-75
2024/01/06 09:45:25;;;;;;;23.73;11.65;;;;;;;;;;5035163;28;20021;-76
2024/01/06 09:47:51;;;;;;;24.00;11.63;;;;;;;;;;5035293;28;20025;-76
2024/01/06 09:50:19;;;;;;;25.73;12.00;;;;;;;;;;5035972;28;20036;-76
2024/01/06 09:52:52;;;;;;;25.40;11.95;;;;;;;;;;5035777;28;20460;-76
2024/01/06 09:55:21;;;;;;;24.50;11.68;;;;;;;;;;5034753;28;20087;-75
2024/01/06 09:57:47;;;;;;;25.80;12.07;;;;;;;;;;5034042;28;20028;-74
2024/01/06 10:00:12;;;;;;;22.47;11.63;;;;;;;;;;5034639;28;20033;-76
2024/01/06 10:02:38;;;;;;;22.35;11.63;;;;;;;;;;5034789;28;20342;-75
2024/01/06 10:05:03;;;;;;;23.92;11.65;;;;;;;;;;5035210;28;20565;-75
2024/01/06 10:07:29;;;;;;;26.10;11.80;;;;;;;;;;5033455;28;20113;-75
2024/01/06 10:09:54;;;;;;;25.90;11.60;;;;;;;;;;5034944;28;20021;-75
2024/01/06 10:12:24;;;;;;;21.92;11.40;;;;;;;;;;5033733;28;20021;-77
2024/01/06 10:14:49;;;;;;;23.45;11.88;;;;;;;;;;5034306;28;20026;-75
2024/01/06 10:17:14;;;;;;;25.00;12.25;;;;;;;;;;5035473;28;20025;-78
2024/01/06 10:19:40;;;;;;;24.23;11.75;;;;;;;;;;5038321;28;20104;-75
2024/01/06 10:22:05;;;;;;;22.92;11.18;;;;;;;;;;5034789;28;20021;-75
2024/01/06 10:24:31;;;;;;;21.13;11.60;;;;;;;;;;5036154;28;20476;-74
2024/01/06 10:26:56;;;;;;;21.55;10.98;;;;;;;;;;5035724;28;20122;-75
2024/01/06 10:29:22;;;;;;;23.00;11.55;;;;;;;;;;5033886;28;20482;-76
2024/01/06 10:31:47;;;;;;;22.38;11.05;;;;;;;;;;5034807;28;20029;-75
2024/01/06 10:34:13;;;;;;;22.65;11.95;;;;;;;;;;5035343;28;20041;-76
2024/01/06 10:36:39;;;;;;;21.60;11.52;;;;;;;;;;5035124;28;20032;-76
2024/01/06 10:39:07;;;;;;;24.23;12.10;;;;;;;;;;5034534;28;20499;-77
2024/01/06 10:41:34;;;;;;;21.83;11.02;;;;;;;;;;5034558;28;20087;-75
2024/01/06 10:44:01;;;;;;;20.02;10.75;;;;;;;;;;5033538;28;20076;-75
2024/01/06 10:46:27;;;;;;;24.05;11.05;;;;;;;;;;5035263;28;20038;-76
2024/01/06 10:48:55;;;;;;;23.85;11.27;;;;;;;;;;5033047;28;20571;-76
2024/01/06 10:51:22;;;;;;;22.92;11.52;;;;;;;;;;5033788;28;20033;-75
2024/01/06 10:53:48;;;;;;;24.35;11.70;;;;;;;;;;5032865;28;20061;-77
2024/01/06 10:56:13;;;;;;;21.08;10.85;;;;;;;;;;5031792;28;20048;-76
2024/01/06 10:58:47;;;;;;;23.63;11.13;;;;;;;;;;5030239;28;20029;-75
2024/01/06 11:01:12;;;;;;;25.45;11.38;;;;;;;;;;5030395;28;20023;-76
2024/01/06 11:03:38;;;;;;;26.30;12.02;;;;;;;;;;5032505;28;20044;-82
2024/01/06 11:06:06;;;;;;;21.42;11.05;;;;;;;;;;5034409;28;20030;-81
2024/01/06 11:08:36;;;;;;;26.55;11.40;;;;;;;;;;5035066;28;20067;-79
2024/01/06 11:11:02;;;;;;;22.02;11.35;;;;;;;;;;5037076;28;20408;-82
2024/01/06 11:13:30;;;;;;;22.48;10.75;;;;;;;;;;5037031;28;20112;-86
2024/01/06 11:15:55;;;;;;;24.13;11.60;;;;;;;;;;5038271;28;20392;-84
2024/01/06 11:18:37;;;;;;;23.07;11.40;;;;;;;;;;5038149;28;20025;-82
2024/01/06 11:21:17;;;;;;;22.80;11.80;;;;;;;;;;5037526;28;20717;-83
2024/01/06 11:23:46;;;;;;;21.67;11.35;;;;;;;;;;5038085;28;20026;-80
2024/01/06 11:26:11;;;;;;;23.70;10.98;;;;;;;;;;5037862;28;20025;-82
2024/01/06 11:28:46;;;;;;;22.00;11.10;;;;;;;;;;5037996;28;20049;-82
2024/01/06 11:31:12;;;;;;;23.80;10.85;;;;;;;;;;5037754;28;20255;-81
2024/01/06 11:33:42;;;;;;;20.67;10.98;;;;;;;;;;5037751;28;20472;-83
2024/01/06 11:36:10;;;;;;;23.60;10.95;;;;;;;;;;5042238;28;20022;-82
2024/01/06 11:38:39;;;;;;;20.60;10.50;;;;;;;;;;5043691;28;20149;-81
2024/01/06 11:41:11;;;;;;;23.52;10.85;;;;;;;;;;5043921;28;20120;-80
2024/01/06 11:43:39;;;;;;;20.40;10.60;;;;;;;;;;5044155;28;20025;-78
2024/01/06 11:46:06;;;;;;;23.42;10.85;;;;;;;;;;5042104;28;20021;-80
2024/01/06 11:48:32;;;;;;;20.98;10.35;;;;;;;;;;5042468;28;20021;-80
2024/01/06 11:50:58;;;;;;;21.65;10.20;;;;;;;;;;5044460;28;20036;-80
2024/01/06 11:53:26;;;;;;;20.60;11.13;;;;;;;;;;5044868;28;20030;-80
2024/01/06 11:55:52;;;;;;;22.17;10.77;;;;;;;;;;5043517;28;20084;-79
2024/01/06 11:58:17;;;;;;;21.40;10.27;;;;;;;;;;5032646;28;20018;-76
2024/01/06 12:00:42;;;;;;;21.50;10.77;;;;;;;;;;5034046;28;20037;-81
2024/01/06 12:03:08;;;;;;;26.77;11.07;;;;;;;;;;5037778;28;20033;-81
2024/01/06 12:05:33;;;;;;;23.10;10.68;;;;;;;;;;5034792;28;20037;-81
2024/01/06 12:08:06;;;;;;;19.17;10.57;;;;;;;;;;5035896;28;20032;-80
2024/01/06 12:10:32;;;;;;;21.27;10.38;;;;;;;;;;5035390;28;20346;-82
2024/01/06 12:13:02;;;;;;;26.50;10.30;;;;;;;;;;5037259;28;20032;-77
2024/01/06 12:15:29;;;;;;;23.48;10.73;;;;;;;;;;5033707;28;20024;-76
2024/01/06 12:17:55;;;;;;;23.13;10.27;;;;;;;;;;5037623;28;20079;-80
2024/01/06 12:20:49;;;;;;;20.60;10.10;;;;;;;;;;5035009;28;20029;-79
2024/01/06 12:26:23;;;;;;;19.90;9.73;;;;;;;;;;5033213;28;20495;-80
2024/01/06 12:28:57;;;;;;;18.15;9.07;;;;;;;;;;5032815;28;20022;-78
2024/01/06 12:31:54;;;;;;;23.30;11.18;;;;;;;;;;5035874;28;20026;-78
2024/01/06 12:34:41;;;;;;;18.60;10.02;;;;;;;;;;5038527;28;20033;-79
2024/01/06 12:37:22;;;;;;;20.67;9.60;;;;;;;;;;5036145;28;20460;-77
2024/01/06 12:40:08;;;;;;;19.23;9.63;;;;;;;;;;5037559;28;20064;-78
2024/01/06 12:42:51;;;;;;;18.58;9.82;;;;;;;;;;5035982;28;20044;-79
2024/01/06 12:46:04;;;;;;;;;;;;;;;;;;;;;
2024/01/06 12:51:20;;;;;;;19.27;9.35;;;;;;;;;;5036578;28;20041;-77
2024/01/06 12:53:45;;;;;;;19.13;8.82;;;;;;;;;;5035150;28;20136;-78
2024/01/06 12:56:11;;;;;;;19.45;9.30;;;;;;;;;;5037289;28;20060;-77
2024/01/06 12:58:36;;;;;;;18.77;9.63;;;;;;;;;;5035984;28;20036;-77
2024/01/06 13:01:02;;;;;;;23.45;9.93;;;;;;;;;;5036431;28;20029;-79
2024/01/06 13:03:27;;;;;;;19.15;9.52;;;;;;;;;;5035885;28;20480;-78
2024/01/06 13:05:53;;;;;;;20.85;10.77;;;;;;;;;;5035608;28;20087;-78
2024/01/06 13:08:35;;;;;;;22.63;11.20;;;;;;;;;;5042434;28;20204;-86
2024/01/06 13:11:09;;;;;;;20.95;10.65;;;;;;;;;;5036649;28;20075;-80
2024/01/06 13:20:50;;;;;;;19.45;10.35;;;;;;;;;;5038269;28;20124;-77
2024/01/06 13:23:21;;;;;;;20.80;11.32;;;;;;;;;;5038191;28;20140;-82
2024/01/06 13:26:09;;;;;;;19.70;11.35;;;;;;;;;;5038559;28;20033;-82
2024/01/06 13:35:37;;;;;;;;;;;;;;;;;;;;;
2024/01/06 13:38:26;;;;;;;16.57;8.27;;;;;;;;;;5035988;28;20028;-82
2024/01/06 13:40:52;;;;;;;17.20;8.40;;;;;;;;;;5037292;28;20507;-79
2024/01/06 13:43:17;;;;;;;18.48;8.90;;;;;;;;;;5035708;28;20021;-81
2024/01/06 13:45:47;;;;;;;19.77;8.50;;;;;;;;;;5037043;28;20044;-81
2024/01/06 13:48:17;;;;;;;16.25;8.43;;;;;;;;;;5036713;28;20068;-80
2024/01/06 13:50:46;;;;;;;21.50;9.25;;;;;;;;;;5036734;28;20075;-79
2024/01/06 13:53:11;;;;;;;24.92;10.05;;;;;;;;;;5034729;28;20535;-78
2024/01/06 13:55:37;;;;;;;20.08;9.85;;;;;;;;;;5034026;28;20117;-77
2024/01/06 13:58:10;;;;;;;23.08;10.48;;;;;;;;;;5035035;28;20029;-78
2024/01/06 14:00:35;;;;;;;28.40;11.50;;;;;;;;;;5035577;28;20032;-77
2024/01/06 14:03:01;;;;;;;21.38;10.20;;;;;;;;;;5033606;28;20021;-78
2024/01/06 14:05:27;;;;;;;26.70;12.48;;;;;;;;;;5035464;28;20036;-78
2024/01/06 14:07:52;;;;;;;25.20;11.15;;;;;;;;;;5036458;28;20033;-78
2024/01/06 14:10:18;;;;;;;24.83;11.40;;;;;;;;;;5035850;28;20099;-80
2024/01/06 14:16:23;;;;;;;27.85;11.32;;;;;;;;;;5010355;28;20034;-79
2024/01/06 14:21:38;;;;;;;26.70;10.60;;;;;;;;;;4800560;26;20067;-78
2024/01/06 14:24:31;;;;;;;26.00;10.88;;;;;;;;;;5057238;28;20104;-79
2024/01/06 14:27:26;;;;;;;20.48;10.05;;;;;;;;;;5057069;28;20096;-76
2024/01/06 14:30:24;;;;;;;29.00;11.15;;;;;;;;;;5032543;28;20037;-78
2024/01/06 14:33:46;;;;;;;24.95;11.32;;;;;;;;;;5015089;28;20041;-79
2024/01/06 14:40:59;;;;;;;28.70;11.43;;;;;;;;;;4912717;29;20036;-79
2024/01/06 14:43:44;;;;;;;30.23;12.23;;;;;;;;;;4913766;29;20505;-80
2024/01/06 14:47:01;;;;;;;;;;;;;;;;;;;;;
2024/01/06 14:49:52;;;;;;;34.35;12.57;;;;;;;;;;5029702;28;20035;-77
2024/01/06 14:52:18;;;;;;;38.17;14.50;;;;;;;;;;5023668;28;20108;-80
2024/01/06 14:54:44;;;;;;;34.15;15.02;;;;;;;;;;5044495;28;20075;-81
2024/01/06 14:57:15;;;;;;;38.42;14.50;;;;;;;;;;5042467;28;20028;-82